Zieglerville, Pennsylvania
Current Conditions -  °F | °C
As of 9:54 PM on Saturday 22 Nov 2014 (Local Time) from KPTW Reporting Station
Overcast Overcast  
Wind Chill: 41°   Ceiling: 11000
Heat Index: 41°   Visibility: 10mi
Dew Point: 21°   Wind: 0mph
Humidity: 45%   Direction: NA
Pressure: 30.24"   Gusts: NA
Location:  40.28°N, 75.48°W
Report Text: KPTW 230254Z AUTO 00000KT 10SM FEW080 OVC110 05/M06 A3024 RMK AO2 SLP241 T00501061 58014
Loading
Personal Weather Stations






























Interactive Weather Map New forecast layout! Learn more

10-Day Weather Forecast

Advertisements
Track Severe Weather on mobile